createdAt,value
2018-09-22T00:02:24.402Z,3.70
2018-09-22T00:04:53.246Z,3.53
2018-09-22T00:07:22.116Z,3.87
2018-09-22T00:09:51.006Z,3.47
2018-09-22T00:12:19.810Z,2.33
2018-09-22T00:14:48.657Z,2.00
2018-09-22T00:17:17.498Z,2.40
2018-09-22T00:19:46.338Z,2.27
2018-09-22T00:22:15.230Z,2.00
2018-09-22T00:24:44.074Z,2.30
2018-09-22T00:27:13.092Z,2.40
2018-09-22T00:29:41.954Z,2.13
2018-09-22T00:32:10.798Z,2.17
2018-09-22T00:34:39.634Z,3.67
2018-09-22T00:37:08.261Z,5.53
2018-09-22T00:39:37.007Z,3.67
2018-09-22T00:42:05.864Z,3.47
2018-09-22T00:44:34.573Z,2.90
2018-09-22T00:47:03.426Z,3.40
2018-09-22T00:49:32.269Z,2.83
2018-09-22T00:52:01.134Z,2.60
2018-09-22T00:54:30.006Z,2.90
2018-09-22T00:56:58.840Z,2.63
2018-09-22T00:59:27.683Z,2.63
2018-09-22T01:01:56.535Z,3.07
2018-09-22T01:04:25.381Z,3.13
2018-09-22T01:06:54.234Z,3.10
2018-09-22T01:09:23.083Z,3.10
2018-09-22T01:11:51.949Z,2.83
2018-09-22T01:14:20.793Z,3.03
2018-09-22T01:16:49.641Z,3.37
2018-09-22T01:19:18.494Z,3.17
2018-09-22T01:21:47.334Z,3.70
2018-09-22T01:24:16.193Z,2.97
2018-09-22T01:26:45.042Z,3.20
2018-09-22T01:29:15.149Z,3.23
2018-09-22T01:31:44.709Z,3.80
2018-09-22T01:34:13.874Z,3.47
2018-09-22T01:36:43.126Z,3.57
2018-09-22T01:39:12.178Z,3.57
2018-09-22T01:41:41.794Z,3.47
2018-09-22T01:44:10.663Z,3.20
2018-09-22T01:46:39.496Z,3.30
2018-09-22T01:49:08.378Z,3.23
2018-09-22T01:51:37.227Z,3.07
2018-09-22T01:54:06.117Z,3.43
2018-09-22T01:56:34.975Z,3.43
2018-09-22T01:59:03.834Z,3.53
2018-09-22T02:01:32.682Z,3.43
2018-09-22T02:04:01.531Z,3.47
2018-09-22T02:06:30.383Z,3.37
2018-09-22T02:08:59.316Z,3.93
2018-09-22T02:11:28.173Z,3.80
2018-09-22T02:13:57.075Z,3.53
2018-09-22T02:16:25.951Z,3.53
2018-09-22T02:18:54.798Z,3.93
2018-09-22T02:21:23.655Z,3.70
2018-09-22T02:23:52.591Z,3.57
2018-09-22T02:26:21.491Z,3.50
2018-09-22T02:28:50.379Z,3.37
2018-09-22T02:31:19.222Z,3.50
2018-09-22T02:33:48.079Z,3.50
2018-09-22T02:36:16.893Z,3.70
2018-09-22T02:38:45.734Z,3.27
2018-09-22T02:41:14.566Z,3.80
2018-09-22T02:43:43.402Z,3.77
2018-09-22T02:46:12.234Z,3.83
2018-09-22T02:48:41.080Z,3.77
2018-09-22T02:51:09.914Z,4.13
2018-09-22T02:53:38.830Z,4.33
2018-09-22T02:56:07.666Z,3.47
2018-09-22T02:58:36.502Z,3.10
2018-09-22T03:01:05.395Z,3.53
2018-09-22T03:03:34.357Z,3.50
2018-09-22T03:06:03.191Z,3.50
2018-09-22T03:08:32.038Z,3.70
2018-09-22T03:11:00.867Z,3.50
2018-09-22T03:13:29.778Z,3.50
2018-09-22T03:15:58.667Z,4.10
2018-09-22T03:18:27.511Z,4.10
2018-09-22T03:20:56.350Z,3.33
2018-09-22T03:23:25.206Z,3.80
2018-09-22T03:25:54.042Z,2.90
2018-09-22T03:28:22.890Z,3.60
2018-09-22T03:30:51.749Z,4.13
2018-09-22T03:33:20.582Z,3.27
2018-09-22T03:35:49.426Z,3.13
2018-09-22T03:38:18.080Z,3.43
2018-09-22T03:40:46.775Z,3.70
2018-09-22T03:43:15.606Z,4.20
2018-09-22T03:45:44.453Z,3.37
2018-09-22T03:48:13.289Z,3.50
2018-09-22T03:50:42.186Z,3.43
2018-09-22T03:53:11.018Z,3.60
2018-09-22T03:55:39.866Z,3.50
2018-09-22T03:58:08.698Z,3.63
2018-09-22T04:00:37.539Z,3.07
2018-09-22T04:03:06.420Z,3.37
2018-09-22T04:05:35.228Z,3.70
2018-09-22T04:08:04.053Z,3.87
2018-09-22T04:10:32.894Z,3.13
2018-09-22T04:13:01.731Z,3.00
2018-09-22T04:15:30.569Z,3.20
2018-09-22T04:17:59.403Z,3.10
2018-09-22T04:20:28.259Z,3.10
2018-09-22T04:22:57.104Z,3.63
2018-09-22T04:25:26.030Z,3.73
2018-09-22T04:27:55.187Z,3.70
2018-09-22T04:30:24.084Z,3.40
2018-09-22T04:32:52.943Z,3.07
2018-09-22T04:35:21.791Z,3.50
2018-09-22T04:37:50.671Z,3.40
2018-09-22T04:40:19.518Z,3.23
2018-09-22T04:42:48.355Z,3.53
2018-09-22T04:45:17.198Z,3.73
2018-09-22T04:47:46.034Z,4.07
2018-09-22T04:50:14.885Z,3.57
2018-09-22T04:52:43.730Z,3.23
2018-09-22T04:55:12.637Z,3.07
2018-09-22T04:57:41.489Z,3.53
2018-09-22T05:00:10.359Z,3.43
2018-09-22T05:02:39.229Z,3.93
2018-09-22T05:05:08.047Z,3.50
2018-09-22T05:07:36.886Z,4.20
2018-09-22T05:10:05.735Z,3.27
2018-09-22T05:12:34.566Z,3.83
2018-09-22T05:15:03.979Z,3.07
2018-09-22T05:17:32.827Z,3.23
2018-09-22T05:20:01.667Z,3.10
2018-09-22T05:22:30.506Z,3.30
2018-09-22T05:24:59.346Z,2.87
2018-09-22T05:27:28.185Z,3.07
2018-09-22T05:29:57.038Z,3.40
2018-09-22T05:32:25.873Z,3.70
2018-09-22T05:34:54.714Z,4.00
2018-09-22T05:37:23.590Z,3.63
2018-09-22T05:39:52.421Z,3.50
2018-09-22T05:42:21.310Z,3.00
2018-09-22T05:44:50.103Z,3.27
2018-09-22T05:47:18.954Z,3.10
2018-09-22T05:49:47.929Z,3.90
2018-09-22T05:52:16.766Z,3.17
2018-09-22T05:54:45.602Z,3.83
2018-09-22T05:57:14.442Z,3.80
2018-09-22T05:59:43.361Z,3.30
2018-09-22T06:02:12.264Z,3.70
2018-09-22T06:04:41.094Z,3.80
2018-09-22T06:07:09.938Z,3.30
2018-09-22T06:09:38.791Z,3.77
2018-09-22T06:12:07.662Z,3.43
2018-09-22T06:14:36.516Z,3.40
2018-09-22T06:17:05.366Z,3.40
2018-09-22T06:19:34.210Z,3.70
2018-09-22T06:22:03.045Z,3.63
2018-09-22T06:24:31.935Z,3.90
2018-09-22T06:27:00.778Z,3.33
2018-09-22T06:29:29.618Z,3.47
2018-09-22T06:31:58.470Z,3.87
2018-09-22T06:34:27.306Z,3.60
2018-09-22T06:36:56.418Z,4.07
2018-09-22T06:39:25.257Z,4.30
2018-09-22T06:41:54.127Z,4.30
2018-09-22T06:44:22.942Z,4.40
2018-09-22T06:46:51.778Z,4.30
2018-09-22T06:49:20.610Z,4.60
2018-09-22T06:51:49.452Z,4.40
2018-09-22T06:54:18.337Z,4.13
2018-09-22T06:56:47.175Z,4.33
2018-09-22T06:59:16.038Z,4.77
2018-09-22T07:01:44.886Z,4.27
2018-09-22T07:04:13.717Z,4.30
2018-09-22T07:06:42.571Z,4.07
2018-09-22T07:09:11.402Z,4.37
2018-09-22T07:11:40.371Z,4.70
2018-09-22T07:14:09.168Z,4.60
2018-09-22T07:16:38.075Z,5.00
2018-09-22T07:19:06.906Z,4.90
2018-09-22T07:21:41.146Z,4.33
2018-09-22T07:24:09.775Z,4.60
2018-09-22T07:26:38.490Z,4.03
2018-09-22T07:29:07.326Z,4.63
2018-09-22T07:31:36.182Z,5.37
2018-09-22T07:34:05.013Z,4.97
2018-09-22T07:36:33.886Z,4.17
2018-09-22T07:39:02.746Z,4.20
2018-09-22T07:41:31.633Z,3.93
2018-09-22T07:44:00.480Z,3.93
2018-09-22T07:46:29.317Z,4.33
2018-09-22T07:48:58.159Z,4.27
2018-09-22T07:51:27.007Z,4.20
2018-09-22T07:53:55.883Z,4.20
2018-09-22T07:56:24.695Z,3.97
2018-09-22T07:58:53.744Z,4.03
2018-09-22T08:01:22.990Z,3.83
2018-09-22T08:03:51.831Z,4.13
2018-09-22T08:06:20.858Z,4.17
2018-09-22T08:08:49.698Z,3.63
2018-09-22T08:11:18.534Z,4.40
2018-09-22T08:13:47.378Z,3.47
2018-09-22T08:16:16.726Z,3.70
2018-09-22T08:18:45.549Z,3.93
2018-09-22T08:21:14.382Z,3.67
2018-09-22T08:23:43.233Z,3.20
2018-09-22T08:26:12.062Z,3.43
2018-09-22T08:28:40.902Z,3.80
2018-09-22T08:31:09.754Z,3.40
2018-09-22T08:33:38.615Z,3.60
2018-09-22T08:36:07.578Z,3.10
2018-09-22T08:38:36.317Z,3.50
2018-09-22T08:41:05.167Z,3.40
2018-09-22T08:43:34.015Z,3.47
2018-09-22T08:46:02.971Z,3.63
2018-09-22T08:48:31.815Z,3.27
2018-09-22T08:51:00.679Z,3.50
2018-09-22T08:53:29.520Z,3.23
2018-09-22T08:55:58.411Z,3.20
2018-09-22T08:58:27.227Z,3.67
2018-09-22T09:00:56.083Z,3.90
2018-09-22T09:03:24.935Z,3.60
2018-09-22T09:05:53.827Z,3.40
2018-09-22T09:08:22.651Z,3.33
2018-09-22T09:10:51.557Z,3.73
2018-09-22T09:13:20.381Z,2.90
2018-09-22T09:15:49.251Z,3.37
2018-09-22T09:18:18.093Z,2.87
2018-09-22T09:20:46.953Z,3.67
2018-09-22T09:23:15.814Z,4.20
2018-09-22T09:25:44.895Z,3.97
2018-09-22T09:28:13.747Z,3.27
2018-09-22T09:30:42.662Z,3.33
2018-09-22T09:33:11.522Z,3.70
2018-09-22T09:35:40.402Z,3.23
2018-09-22T09:38:09.285Z,3.70
2018-09-22T09:40:38.130Z,3.00
2018-09-22T09:43:07.119Z,3.23
2018-09-22T09:45:35.962Z,3.40
2018-09-22T09:48:04.826Z,3.63
2018-09-22T09:50:33.681Z,3.60
2018-09-22T09:53:02.626Z,3.43
2018-09-22T09:55:31.521Z,2.90
2018-09-22T09:58:00.371Z,3.10
2018-09-22T10:00:34.622Z,3.33
2018-09-22T10:03:03.466Z,2.50
2018-09-22T10:05:32.390Z,3.07
2018-09-22T10:08:01.241Z,2.93
2018-09-22T10:10:30.133Z,2.83
2018-09-22T10:12:58.971Z,2.47
2018-09-22T10:15:27.817Z,2.90
2018-09-22T10:17:56.662Z,3.03
2018-09-22T10:20:25.526Z,3.27
2018-09-22T10:22:54.365Z,2.60
2018-09-22T10:25:23.402Z,2.93
2018-09-22T10:27:52.246Z,2.90
2018-09-22T10:30:21.102Z,2.87
2018-09-22T10:32:49.964Z,2.53
2018-09-22T10:35:18.806Z,2.57
2018-09-22T10:37:47.658Z,2.90
2018-09-22T10:40:16.527Z,2.50
2018-09-22T10:42:45.398Z,2.60
2018-09-22T10:45:14.258Z,3.00
2018-09-22T10:47:43.103Z,2.60
2018-09-22T10:50:11.938Z,2.47
2018-09-22T10:52:40.844Z,3.33
2018-09-22T10:55:09.642Z,2.77
2018-09-22T10:57:38.567Z,3.13
2018-09-22T11:00:07.364Z,2.73
2018-09-22T11:02:36.209Z,2.93
2018-09-22T11:05:05.206Z,2.90
2018-09-22T11:07:34.059Z,3.07
2018-09-22T11:10:02.915Z,2.43
2018-09-22T11:12:31.768Z,2.70
2018-09-22T11:15:00.621Z,2.93
2018-09-22T11:17:29.478Z,2.63
2018-09-22T11:19:58.323Z,2.60
2018-09-22T11:22:27.184Z,2.93
2018-09-22T11:24:56.226Z,2.30
2018-09-22T11:27:25.078Z,2.67
2018-09-22T11:29:54.006Z,2.77
2018-09-22T11:32:22.915Z,2.60
2018-09-22T11:34:51.762Z,2.63
2018-09-22T11:37:20.824Z,2.23
2018-09-22T11:39:49.681Z,2.63
2018-09-22T11:42:18.535Z,2.60
2018-09-22T11:44:47.766Z,2.60
2018-09-22T11:47:16.609Z,2.60
2018-09-22T11:49:45.510Z,2.63
2018-09-22T11:52:14.318Z,2.70
2018-09-22T11:54:43.163Z,2.60
2018-09-22T11:57:12.006Z,2.80
2018-09-22T11:59:40.863Z,3.00
2018-09-22T12:02:09.795Z,2.87
2018-09-22T12:04:38.954Z,2.90
2018-09-22T12:07:08.205Z,2.80
2018-09-22T12:09:37.630Z,2.43
2018-09-22T12:12:06.517Z,2.77
2018-09-22T12:14:35.326Z,2.57
2018-09-22T12:17:04.180Z,2.40
2018-09-22T12:19:33.022Z,2.40
2018-09-22T12:22:02.421Z,2.73
2018-09-22T12:24:31.279Z,3.17
2018-09-22T12:27:00.130Z,2.70
2018-09-22T12:29:29.002Z,2.80
2018-09-22T12:31:58.000Z,2.97
2018-09-22T12:34:26.906Z,2.93
2018-09-22T12:36:55.767Z,3.70
2018-09-22T12:39:24.626Z,2.50
2018-09-22T12:41:53.511Z,2.70
2018-09-22T12:44:22.354Z,2.70
2018-09-22T12:46:51.206Z,2.60
2018-09-22T12:49:20.059Z,2.57
2018-09-22T12:51:48.901Z,2.70
2018-09-22T12:54:17.754Z,2.83
2018-09-22T12:56:46.666Z,3.03
2018-09-22T12:59:15.517Z,2.70
2018-09-22T13:01:44.354Z,3.03
2018-09-22T13:04:13.210Z,2.90
2018-09-22T13:06:42.109Z,2.97
2018-09-22T13:09:11.576Z,2.83
2018-09-22T13:11:40.421Z,2.67
2018-09-22T13:14:09.279Z,3.30
2018-09-22T13:16:38.114Z,3.00
2018-09-22T13:19:07.046Z,2.93
2018-09-22T13:21:36.002Z,3.23
2018-09-22T13:24:04.866Z,2.97
2018-09-22T13:26:33.719Z,3.13
2018-09-22T13:29:02.566Z,2.77
2018-09-22T13:31:31.406Z,3.00
2018-09-22T13:34:00.663Z,2.63
2018-09-22T13:36:29.491Z,2.70
2018-09-22T13:38:58.326Z,2.97
2018-09-22T13:41:27.154Z,2.80
2018-09-22T13:43:56.005Z,2.30
2018-09-22T13:46:24.892Z,2.60
2018-09-22T13:48:53.800Z,2.30
2018-09-22T13:51:22.630Z,2.83
2018-09-22T13:53:51.488Z,2.70
2018-09-22T13:56:20.454Z,2.40
2018-09-22T13:58:49.214Z,2.60
2018-09-22T14:01:18.046Z,2.87
2018-09-22T14:03:46.968Z,2.40
2018-09-22T14:06:15.738Z,2.13
2018-09-22T14:08:44.595Z,2.57
2018-09-22T14:11:13.414Z,2.13
2018-09-22T14:13:42.250Z,2.10
2018-09-22T14:16:11.078Z,2.33
2018-09-22T14:18:39.984Z,2.50
2018-09-22T14:21:08.751Z,2.27
2018-09-22T14:23:37.614Z,2.03
2018-09-22T14:26:06.533Z,2.30
2018-09-22T14:28:35.362Z,2.17
2018-09-22T14:31:04.202Z,1.90
2018-09-22T14:33:33.035Z,2.27
2018-09-22T14:36:01.872Z,2.00
2018-09-22T14:38:30.706Z,2.23
2018-09-22T14:40:59.325Z,2.47
2018-09-22T14:43:28.023Z,2.30
2018-09-22T14:45:56.872Z,2.10
2018-09-22T14:48:25.687Z,2.40
2018-09-22T14:50:54.522Z,2.10
2018-09-22T14:53:23.354Z,2.40
2018-09-22T14:55:52.190Z,2.27
2018-09-22T14:58:21.055Z,2.07
2018-09-22T15:00:49.907Z,2.30
2018-09-22T15:03:18.740Z,2.13
2018-09-22T15:05:47.574Z,2.17
2018-09-22T15:08:16.402Z,2.80
2018-09-22T15:10:45.242Z,2.30
2018-09-22T15:13:14.078Z,2.40
2018-09-22T15:15:42.963Z,2.30
2018-09-22T15:18:11.797Z,2.20
2018-09-22T15:20:40.687Z,2.63
2018-09-22T15:23:09.486Z,2.40
2018-09-22T15:25:38.339Z,2.27
2018-09-22T15:28:07.182Z,2.00
2018-09-22T15:30:36.150Z,2.30
2018-09-22T15:33:05.106Z,2.20
2018-09-22T15:35:33.957Z,2.43
2018-09-22T15:38:02.806Z,2.60
2018-09-22T15:40:31.653Z,2.20
2018-09-22T15:43:00.494Z,2.07
2018-09-22T15:45:29.383Z,2.20
2018-09-22T15:47:58.210Z,2.20
2018-09-22T15:50:27.098Z,2.47
2018-09-22T15:52:55.938Z,2.23
2018-09-22T15:55:25.038Z,2.20
2018-09-22T15:57:53.886Z,2.47
2018-09-22T16:00:22.725Z,2.33
2018-09-22T16:02:51.574Z,2.40
2018-09-22T16:05:20.418Z,2.57
2018-09-22T16:07:49.046Z,2.57
2018-09-22T16:10:17.775Z,2.20
2018-09-22T16:12:46.630Z,2.30
2018-09-22T16:15:15.256Z,2.30
2018-09-22T16:17:44.002Z,2.60
2018-09-22T16:20:12.842Z,2.70
2018-09-22T16:22:41.695Z,2.77
2018-09-22T16:25:10.549Z,3.30
2018-09-22T16:27:39.386Z,2.60
2018-09-22T16:30:08.902Z,2.33
2018-09-22T16:32:37.942Z,2.40
2018-09-22T16:35:07.502Z,2.47
2018-09-22T16:37:36.358Z,2.40
2018-09-22T16:40:05.174Z,2.10
2018-09-22T16:42:34.058Z,1.70
2018-09-22T16:45:02.899Z,2.07
2018-09-22T16:47:31.748Z,1.73
2018-09-22T16:50:00.631Z,1.67
2018-09-22T16:52:29.401Z,1.83
2018-09-22T16:54:58.234Z,2.13
2018-09-22T16:57:27.070Z,1.70
2018-09-22T16:59:55.890Z,1.80
2018-09-22T17:02:24.730Z,2.07
2018-09-22T17:04:53.554Z,1.70
2018-09-22T17:07:22.434Z,1.73
2018-09-22T17:09:51.265Z,2.23
2018-09-22T17:12:20.108Z,1.93
2018-09-22T17:14:48.938Z,2.30
2018-09-22T17:17:17.769Z,2.37
2018-09-22T17:19:46.594Z,2.57
2018-09-22T17:22:15.430Z,2.30
2018-09-22T17:24:44.262Z,2.50
2018-09-22T17:27:13.100Z,2.27
2018-09-22T17:29:42.024Z,3.47
2018-09-22T17:32:11.546Z,3.07
2018-09-22T17:34:40.387Z,3.00
2018-09-22T17:37:09.222Z,2.83
2018-09-22T17:39:38.049Z,2.60
2018-09-22T17:42:06.963Z,3.00
2018-09-22T17:44:35.790Z,2.87
2018-09-22T17:47:04.626Z,2.30
2018-09-22T17:49:33.502Z,2.83
2018-09-22T17:52:02.286Z,2.80
2018-09-22T17:54:31.109Z,2.53
2018-09-22T17:57:00.046Z,2.97
2018-09-22T17:59:29.094Z,2.73
2018-09-22T18:01:58.339Z,3.07
2018-09-22T18:04:27.192Z,3.17
2018-09-22T18:06:55.999Z,3.83
2018-09-22T18:09:24.821Z,3.70
2018-09-22T18:11:53.653Z,3.97
2018-09-22T18:14:23.296Z,3.87
2018-09-22T18:16:52.231Z,3.63
2018-09-22T18:19:20.966Z,3.47
2018-09-22T18:21:49.793Z,3.50
2018-09-22T18:24:18.629Z,3.80
2018-09-22T18:26:47.254Z,3.50
2018-09-22T18:29:15.969Z,3.53
2018-09-22T18:31:44.821Z,3.50
2018-09-22T18:34:13.679Z,3.70
2018-09-22T18:36:42.533Z,3.60
2018-09-22T18:39:11.342Z,3.73
2018-09-22T18:41:40.230Z,3.70
2018-09-22T18:44:08.849Z,3.50
2018-09-22T18:46:37.566Z,3.50
2018-09-22T18:49:06.402Z,4.03
2018-09-22T18:51:35.469Z,3.50
2018-09-22T18:54:04.415Z,3.90
2018-09-22T18:56:33.247Z,3.70
2018-09-22T18:59:02.078Z,4.00
2018-09-22T19:01:30.938Z,3.70
2018-09-22T19:03:59.769Z,4.03
2018-09-22T19:06:28.614Z,3.70
2018-09-22T19:08:57.542Z,3.93
2018-09-22T19:11:26.302Z,3.83
2018-09-22T19:14:03.153Z,4.03
2018-09-22T19:16:38.594Z,3.97
2018-09-22T19:19:10.234Z,4.00
2018-09-22T19:21:56.498Z,3.73
2018-09-22T19:24:59.174Z,4.27
2018-09-22T19:27:33.006Z,4.47
2018-09-22T19:30:05.338Z,3.60
2018-09-22T19:32:38.434Z,3.60
2018-09-22T19:35:13.971Z,3.83
2018-09-22T19:38:46.118Z,3.50
2018-09-22T19:41:22.794Z,3.93
2018-09-22T19:43:56.619Z,3.77
2018-09-22T19:46:30.459Z,3.83
2018-09-22T19:49:02.651Z,3.53
2018-09-22T19:51:35.675Z,3.50
2018-09-22T19:54:04.979Z,4.27
2018-09-22T19:56:33.805Z,3.40
2018-09-22T19:59:02.641Z,3.80
2018-09-22T20:01:31.479Z,4.77
2018-09-22T20:04:00.314Z,5.17
2018-09-22T20:06:29.146Z,5.27
2018-09-22T20:08:57.990Z,5.30
2018-09-22T20:11:26.839Z,4.70
2018-09-22T20:13:55.654Z,4.30
2018-09-22T20:16:24.542Z,4.60
2018-09-22T20:18:53.463Z,4.20
2018-09-22T20:21:22.313Z,4.80
2018-09-22T20:23:50.930Z,5.27
2018-09-22T20:26:19.629Z,7.30
2018-09-22T20:28:48.466Z,8.60
2018-09-22T20:31:17.093Z,8.67
2018-09-22T20:33:45.830Z,6.73
2018-09-22T20:36:14.706Z,6.43
2018-09-22T20:38:43.522Z,5.77
2018-09-22T20:41:12.423Z,5.53
2018-09-22T20:43:41.280Z,5.70
2018-09-22T20:46:10.120Z,6.63
2018-09-22T20:48:38.970Z,6.23
2018-09-22T20:51:08.227Z,5.53
2018-09-22T20:53:37.104Z,5.57
2018-09-22T20:56:05.934Z,4.90
2018-09-22T20:58:34.794Z,4.80
2018-09-22T21:01:03.634Z,4.80
2018-09-22T21:03:32.530Z,4.40
2018-09-22T21:06:01.370Z,4.23
2018-09-22T21:08:30.223Z,4.20
2018-09-22T21:10:59.066Z,4.33
2018-09-22T21:13:27.962Z,3.97
2018-09-22T21:15:56.940Z,4.17
2018-09-22T21:18:25.786Z,4.33
2018-09-22T21:20:54.626Z,4.20
2018-09-22T21:23:23.484Z,4.07
2018-09-22T21:25:52.318Z,3.87
2018-09-22T21:28:21.213Z,4.23
2018-09-22T21:30:50.101Z,4.07
2018-09-22T21:33:18.911Z,4.10
2018-09-22T21:35:47.747Z,4.30
2018-09-22T21:38:16.590Z,4.33
2018-09-22T21:40:45.489Z,4.23
2018-09-22T21:43:14.333Z,4.03
2018-09-22T21:45:43.193Z,4.03
2018-09-22T21:48:12.026Z,3.70
2018-09-22T21:50:40.874Z,3.80
2018-09-22T21:53:09.718Z,3.70
2018-09-22T21:55:38.570Z,3.53
2018-09-22T21:58:07.578Z,4.00
2018-09-22T22:00:36.430Z,4.10
2018-09-22T22:03:05.609Z,3.63
2018-09-22T22:05:34.453Z,3.93
2018-09-22T22:08:03.325Z,3.60
2018-09-22T22:10:32.170Z,3.70
2018-09-22T22:13:01.005Z,3.80
2018-09-22T22:15:30.462Z,4.13
2018-09-22T22:17:59.310Z,3.50
2018-09-22T22:20:28.157Z,3.67
2018-09-22T22:22:57.020Z,3.40
2018-09-22T22:25:25.864Z,4.10
2018-09-22T22:27:54.709Z,3.33
2018-09-22T22:30:23.561Z,3.70
2018-09-22T22:32:52.394Z,3.67
2018-09-22T22:35:21.625Z,3.50
2018-09-22T22:37:50.366Z,3.63
2018-09-22T22:40:19.198Z,3.67
2018-09-22T22:42:48.035Z,3.70
2018-09-22T22:45:16.654Z,4.73
2018-09-22T22:47:45.398Z,4.57
2018-09-22T22:50:14.286Z,4.73
2018-09-22T22:52:43.147Z,5.07
2018-09-22T22:55:11.994Z,5.53
2018-09-22T22:57:40.830Z,5.40
2018-09-22T23:00:09.683Z,5.03
2018-09-22T23:02:38.501Z,4.80
2018-09-22T23:05:07.442Z,4.73
2018-09-22T23:07:36.274Z,4.47
2018-09-22T23:10:05.111Z,4.63
2018-09-22T23:12:33.954Z,4.40
2018-09-22T23:15:02.818Z,4.67
2018-09-22T23:17:31.646Z,4.40
2018-09-22T23:20:00.481Z,5.43
2018-09-22T23:22:29.309Z,4.93
2018-09-22T23:24:58.158Z,5.67
2018-09-22T23:27:27.378Z,5.30
2018-09-22T23:29:56.335Z,5.60
2018-09-22T23:32:25.170Z,5.50
2018-09-22T23:34:54.005Z,5.90
2018-09-22T23:37:22.847Z,5.50
2018-09-22T23:39:51.700Z,6.57
2018-09-22T23:42:20.534Z,6.50
2018-09-22T23:44:49.163Z,6.80
2018-09-22T23:47:17.885Z,6.53
2018-09-22T23:49:47.310Z,6.73
2018-09-22T23:52:16.110Z,6.90
2018-09-22T23:54:44.946Z,7.50
2018-09-22T23:57:13.790Z,7.70
2018-09-22T23:59:42.640Z,7.33
